createdAt,value
2022-09-30T00:01:43.147Z,57.47
2022-09-30T00:04:15.752Z,57.29
2022-09-30T00:06:43.325Z,57.15
2022-09-30T00:09:12.900Z,57.11
2022-09-30T00:11:41.622Z,57.53
2022-09-30T00:14:19.129Z,57.73
2022-09-30T00:16:46.713Z,57.42
2022-09-30T00:19:14.697Z,57.30
2022-09-30T00:21:42.609Z,57.35
2022-09-30T00:24:10.094Z,57.30
2022-09-30T00:26:37.155Z,57.10
2022-09-30T00:29:05.256Z,56.85
2022-09-30T00:31:35.096Z,56.67
2022-09-30T00:34:08.567Z,56.78
2022-09-30T00:36:45.877Z,56.99
2022-09-30T00:39:20.225Z,56.85
2022-09-30T00:41:54.262Z,56.73
2022-09-30T00:44:45.548Z,57.01
2022-09-30T00:47:38.181Z,56.95
2022-09-30T00:50:42.714Z,57.13
2022-09-30T00:53:35.767Z,56.78
2022-09-30T00:56:19.199Z,56.88
2022-09-30T00:59:04.677Z,56.75
2022-09-30T01:01:32.421Z,56.64
2022-09-30T01:04:09.898Z,57.00
2022-09-30T01:06:37.382Z,56.90
2022-09-30T01:09:05.124Z,56.59
2022-09-30T01:11:32.308Z,56.52
2022-09-30T01:14:08.784Z,56.00
2022-09-30T01:17:10.684Z,56.17
2022-09-30T01:20:27.141Z,56.25
2022-09-30T01:23:12.228Z,56.43
2022-09-30T01:26:04.225Z,56.42
2022-09-30T01:29:01.480Z,56.43
2022-09-30T01:31:44.327Z,56.66
2022-09-30T01:34:40.168Z,56.73
2022-09-30T01:37:25.814Z,56.57
2022-09-30T01:40:01.631Z,56.88
2022-09-30T01:43:06.158Z,56.83
2022-09-30T01:45:46.564Z,56.16
2022-09-30T01:48:22.925Z,56.07
2022-09-30T01:51:10.377Z,56.88
2022-09-30T01:53:50.942Z,57.02
2022-09-30T01:56:44.623Z,57.21
2022-09-30T01:59:25.158Z,57.64
2022-09-30T02:02:12.248Z,57.41
2022-09-30T02:04:46.518Z,57.16
2022-09-30T02:07:21.320Z,57.36
2022-09-30T02:10:06.277Z,57.92
2022-09-30T02:12:40.803Z,58.15
2022-09-30T02:15:16.385Z,58.07
2022-09-30T02:17:50.818Z,58.01
2022-09-30T02:20:22.603Z,58.21
2022-09-30T02:22:57.130Z,58.04
2022-09-30T02:25:30.915Z,58.40
2022-09-30T02:28:03.182Z,58.46
2022-09-30T02:30:31.904Z,58.02
2022-09-30T02:33:12.318Z,58.40
2022-09-30T02:35:46.841Z,58.39
2022-09-30T02:38:22.506Z,57.84
2022-09-30T02:41:06.453Z,57.88
2022-09-30T02:43:34.422Z,57.67
2022-09-30T02:46:32.419Z,57.81
2022-09-30T02:49:24.904Z,58.20
2022-09-30T02:52:39.440Z,58.33
2022-09-30T02:55:22.054Z,58.33
2022-09-30T02:58:08.711Z,58.93
2022-09-30T03:00:35.826Z,58.72
2022-09-30T03:03:09.459Z,58.64
2022-09-30T03:05:36.562Z,58.72
2022-09-30T03:08:04.052Z,58.42
2022-09-30T03:10:31.393Z,57.81
2022-09-30T03:13:10.287Z,58.00
2022-09-30T03:15:47.867Z,58.56
2022-09-30T03:18:41.025Z,58.93
2022-09-30T03:21:51.183Z,59.29
2022-09-30T03:25:01.281Z,58.69
2022-09-30T03:28:05.148Z,58.35
2022-09-30T03:30:38.309Z,58.49
2022-09-30T03:33:34.618Z,58.88
2022-09-30T03:36:24.045Z,59.26
2022-09-30T03:39:06.014Z,59.30
2022-09-30T03:41:52.334Z,58.61
2022-09-30T03:44:28.010Z,58.82
2022-09-30T03:47:01.424Z,58.93
2022-09-30T03:49:42.138Z,58.88
2022-09-30T03:52:12.940Z,59.06
2022-09-30T03:55:00.325Z,59.27
2022-09-30T03:57:31.064Z,59.61
2022-09-30T03:59:59.247Z,59.44
2022-09-30T04:02:27.323Z,59.65
2022-09-30T04:04:54.533Z,59.66
2022-09-30T04:07:21.581Z,60.09
2022-09-30T04:09:48.643Z,60.48
2022-09-30T04:12:15.833Z,60.56
2022-09-30T04:14:42.876Z,60.57
2022-09-30T04:17:10.783Z,60.49
2022-09-30T04:19:40.320Z,60.38
2022-09-30T04:22:09.079Z,60.93
2022-09-30T04:24:36.811Z,60.65
2022-09-30T04:27:03.999Z,61.10
2022-09-30T04:29:31.130Z,61.07
2022-09-30T04:31:58.249Z,61.29
2022-09-30T04:34:25.263Z,61.46
2022-09-30T04:36:52.376Z,61.47
2022-09-30T04:39:19.443Z,61.86
2022-09-30T04:41:46.588Z,61.97
2022-09-30T04:44:13.793Z,62.11
2022-09-30T04:46:40.830Z,62.29
2022-09-30T04:49:09.513Z,62.36
2022-09-30T04:51:38.471Z,62.50
2022-09-30T04:54:05.587Z,62.73
2022-09-30T04:56:32.998Z,62.93
2022-09-30T04:59:00.072Z,62.80
2022-09-30T05:01:27.147Z,62.76
2022-09-30T05:03:55.074Z,62.67
2022-09-30T05:06:22.171Z,62.59
2022-09-30T05:08:49.235Z,62.96
2022-09-30T05:11:19.954Z,63.06
2022-09-30T05:13:47.834Z,63.14
2022-09-30T05:16:16.287Z,62.91
2022-09-30T05:18:46.455Z,62.97
2022-09-30T05:21:22.332Z,63.02
2022-09-30T05:23:49.604Z,63.26
2022-09-30T05:26:16.775Z,63.47
2022-09-30T05:28:44.062Z,63.37
2022-09-30T05:31:13.649Z,63.44
2022-09-30T05:33:41.922Z,62.83
2022-09-30T05:36:14.232Z,62.53
2022-09-30T05:38:41.435Z,62.51
2022-09-30T05:41:13.544Z,62.51
2022-09-30T05:43:42.505Z,62.04
2022-09-30T05:46:09.544Z,61.76
2022-09-30T05:48:36.781Z,61.61
2022-09-30T05:51:04.007Z,61.80
2022-09-30T05:53:32.675Z,62.14
2022-09-30T05:56:00.639Z,62.14
2022-09-30T05:58:27.718Z,61.95
2022-09-30T06:00:55.446Z,61.30
2022-09-30T06:03:23.045Z,60.73
2022-09-30T06:05:57.774Z,60.47
2022-09-30T06:08:25.084Z,60.45
2022-09-30T06:10:52.592Z,59.78
2022-09-30T06:13:21.393Z,59.35
2022-09-30T06:16:00.291Z,59.19
2022-09-30T06:18:29.002Z,58.91
2022-09-30T06:21:04.848Z,58.41
2022-09-30T06:23:35.186Z,57.96
2022-09-30T06:26:05.127Z,58.18
2022-09-30T06:28:35.434Z,58.08
2022-09-30T06:31:04.329Z,58.16
2022-09-30T06:33:32.171Z,58.09
2022-09-30T06:35:59.775Z,57.26
2022-09-30T06:38:28.748Z,56.67
2022-09-30T06:40:56.674Z,55.80
2022-09-30T06:43:23.867Z,55.29
2022-09-30T06:45:52.003Z,55.00
2022-09-30T06:48:30.984Z,53.49
2022-09-30T06:51:03.090Z,53.74
2022-09-30T06:53:30.232Z,53.96
2022-09-30T06:55:58.579Z,54.48
2022-09-30T06:58:26.077Z,54.33
2022-09-30T07:01:05.875Z,53.98
2022-09-30T07:03:36.669Z,53.17
2022-09-30T07:06:06.377Z,52.98
2022-09-30T07:08:36.648Z,52.89
2022-09-30T07:11:14.578Z,51.96
2022-09-30T07:13:46.848Z,52.05
2022-09-30T07:16:15.477Z,51.03
2022-09-30T07:18:43.642Z,50.54
2022-09-30T07:21:13.656Z,50.79
2022-09-30T07:23:47.289Z,50.14
2022-09-30T07:26:21.386Z,49.71
2022-09-30T07:28:49.868Z,48.80
2022-09-30T07:31:37.258Z,48.66
2022-09-30T07:34:07.584Z,48.42
2022-09-30T07:36:37.913Z,47.78
2022-09-30T07:39:10.050Z,47.03
2022-09-30T07:41:40.189Z,46.14
2022-09-30T07:44:14.541Z,46.18
2022-09-30T07:46:44.842Z,46.18
2022-09-30T07:49:24.423Z,46.57
2022-09-30T07:51:55.627Z,45.42
2022-09-30T07:54:30.747Z,45.42
2022-09-30T07:57:15.162Z,44.55
2022-09-30T07:59:42.935Z,44.11
2022-09-30T08:02:17.273Z,44.25
2022-09-30T08:04:45.042Z,43.36
2022-09-30T08:07:15.024Z,43.12
2022-09-30T08:09:42.330Z,43.27
2022-09-30T08:12:10.183Z,43.27
2022-09-30T08:14:37.476Z,43.51
2022-09-30T08:17:04.614Z,43.52
2022-09-30T08:19:33.740Z,43.88
2022-09-30T08:22:04.478Z,44.36
2022-09-30T08:24:31.624Z,44.29
2022-09-30T08:26:58.759Z,43.57
2022-09-30T08:32:13.366Z,43.01
2022-09-30T08:34:40.454Z,43.40
2022-09-30T08:37:09.664Z,43.74
2022-09-30T08:39:38.562Z,43.65
2022-09-30T08:42:44.274Z,43.52
2022-09-30T08:45:17.438Z,43.83
2022-09-30T08:48:22.720Z,43.34
2022-09-30T08:51:25.041Z,43.54
2022-09-30T08:53:53.994Z,44.18
2022-09-30T08:56:28.532Z,43.66
2022-09-30T08:59:07.424Z,43.71
2022-09-30T09:01:40.872Z,43.75
2022-09-30T09:04:08.895Z,43.58
2022-09-30T09:07:16.363Z,43.83
2022-09-30T09:10:26.023Z,44.51
2022-09-30T09:13:36.242Z,44.65
2022-09-30T09:16:15.321Z,44.29
2022-09-30T09:19:10.901Z,44.35
2022-09-30T09:21:46.929Z,43.98
2022-09-30T09:24:45.387Z,44.00
2022-09-30T09:27:55.185Z,43.84
2022-09-30T09:30:25.245Z,43.57
2022-09-30T09:32:59.030Z,43.85
2022-09-30T09:35:32.120Z,44.60
2022-09-30T09:38:25.767Z,44.77
2022-09-30T09:41:20.159Z,44.26
2022-09-30T09:44:01.109Z,44.20
2022-09-30T09:46:50.736Z,44.29
2022-09-30T09:49:21.195Z,43.79
2022-09-30T09:52:07.007Z,43.47
2022-09-30T09:54:41.382Z,43.97
2022-09-30T09:57:10.444Z,43.79
2022-09-30T09:59:55.480Z,42.60
2022-09-30T10:02:29.006Z,42.55
2022-09-30T10:05:04.049Z,42.21
2022-09-30T10:07:34.033Z,41.64
2022-09-30T10:10:23.719Z,41.22
2022-09-30T10:12:51.259Z,37.84
2022-09-30T10:15:26.474Z,39.13
2022-09-30T10:17:58.576Z,39.31
2022-09-30T10:20:33.980Z,38.83
2022-09-30T10:23:27.678Z,37.81
2022-09-30T10:26:20.739Z,38.56
2022-09-30T10:28:56.157Z,38.69
2022-09-30T10:31:42.163Z,37.60
2022-09-30T10:34:23.687Z,36.65
2022-09-30T10:36:51.279Z,36.94
2022-09-30T10:39:27.527Z,36.95
2022-09-30T10:42:15.605Z,36.15
2022-09-30T10:44:47.200Z,36.02
2022-09-30T10:47:19.619Z,35.55
2022-09-30T10:49:54.606Z,36.10
2022-09-30T10:52:27.755Z,35.86
2022-09-30T10:55:00.484Z,35.52
2022-09-30T10:57:33.013Z,35.44
2022-09-30T11:00:06.962Z,35.25
2022-09-30T11:02:43.375Z,35.43
2022-09-30T11:05:24.977Z,35.05
2022-09-30T11:08:23.435Z,34.71
2022-09-30T11:11:12.283Z,34.00
2022-09-30T11:13:57.787Z,32.58
2022-09-30T11:17:00.987Z,31.18
2022-09-30T11:19:40.094Z,29.95
2022-09-30T11:22:35.498Z,27.80
2022-09-30T11:25:06.296Z,26.00
2022-09-30T11:27:52.625Z,24.37
2022-09-30T11:31:00.110Z,22.96
2022-09-30T11:34:17.673Z,21.93
2022-09-30T11:37:06.944Z,21.05
2022-09-30T11:40:10.790Z,21.25
2022-09-30T11:43:06.296Z,20.85
2022-09-30T11:46:00.250Z,20.54
2022-09-30T11:49:00.648Z,21.89
2022-09-30T11:51:53.297Z,23.19
2022-09-30T11:55:01.341Z,25.04
2022-09-30T11:57:40.716Z,24.79
2022-09-30T12:00:18.466Z,22.82
2022-09-30T12:02:48.082Z,21.44
2022-09-30T12:05:26.209Z,20.57
2022-09-30T12:08:02.881Z,19.45
2022-09-30T12:10:55.353Z,19.46
2022-09-30T12:13:42.195Z,19.67
2022-09-30T12:16:20.809Z,18.92
2022-09-30T12:18:57.444Z,18.75
2022-09-30T12:21:47.012Z,18.11
2022-09-30T12:24:38.453Z,17.83
2022-09-30T12:27:20.866Z,18.77
2022-09-30T12:30:17.849Z,19.24
2022-09-30T12:33:07.151Z,20.49
2022-09-30T12:36:23.644Z,21.85
2022-09-30T12:39:40.995Z,21.41
2022-09-30T12:42:39.912Z,20.55
2022-09-30T12:45:32.845Z,20.55
2022-09-30T12:48:10.346Z,21.35
2022-09-30T12:50:54.984Z,22.49
2022-09-30T12:53:31.443Z,22.82
2022-09-30T12:56:10.437Z,21.10
2022-09-30T12:58:46.694Z,20.55
2022-09-30T13:01:38.298Z,20.11
2022-09-30T13:04:05.316Z,21.11
2022-09-30T13:06:52.573Z,21.83
2022-09-30T13:09:33.506Z,21.45
2022-09-30T13:12:00.472Z,21.51
2022-09-30T13:14:43.969Z,21.86
2022-09-30T13:17:11.470Z,22.73
2022-09-30T13:19:42.667Z,22.11
2022-09-30T13:22:19.069Z,21.68
2022-09-30T13:24:58.347Z,22.21
2022-09-30T13:27:37.415Z,21.92
2022-09-30T13:30:16.632Z,21.54
2022-09-30T13:32:47.776Z,22.77
2022-09-30T13:35:33.343Z,22.91
2022-09-30T13:38:40.044Z,22.52
2022-09-30T13:41:17.134Z,21.70
2022-09-30T13:44:03.527Z,21.90
2022-09-30T13:46:54.867Z,22.82
2022-09-30T13:49:45.554Z,23.66
2022-09-30T13:52:28.528Z,24.41
2022-09-30T13:55:01.123Z,24.46
2022-09-30T13:57:49.376Z,25.33
2022-09-30T14:00:19.251Z,26.24
2022-09-30T14:03:50.851Z,26.06
2022-09-30T14:06:46.275Z,26.61
2022-09-30T14:09:25.299Z,27.02
2022-09-30T14:12:12.387Z,27.89
2022-09-30T14:15:02.449Z,26.62
2022-09-30T14:17:59.898Z,27.42
2022-09-30T14:20:47.177Z,27.55
2022-09-30T14:23:16.650Z,27.99
2022-09-30T14:26:00.133Z,28.77
2022-09-30T14:29:07.246Z,28.49
2022-09-30T14:31:35.499Z,29.75
2022-09-30T14:34:03.647Z,29.67
2022-09-30T14:36:34.337Z,30.18
2022-09-30T14:39:22.369Z,29.98
2022-09-30T14:41:54.797Z,30.24
2022-09-30T14:44:24.123Z,30.57
2022-09-30T14:46:52.671Z,30.60
2022-09-30T14:49:28.583Z,30.82
2022-09-30T14:51:55.835Z,31.09
2022-09-30T14:54:31.653Z,31.46
2022-09-30T14:57:02.479Z,31.45
2022-09-30T14:59:37.583Z,32.27
2022-09-30T15:02:23.152Z,32.29
2022-09-30T15:04:55.261Z,33.17
2022-09-30T15:07:25.215Z,33.23
2022-09-30T15:09:53.564Z,33.04
2022-09-30T15:12:23.113Z,33.49
2022-09-30T15:14:55.950Z,33.69
2022-09-30T15:17:37.060Z,34.01
2022-09-30T15:20:33.971Z,34.94
2022-09-30T15:23:06.181Z,34.93
2022-09-30T15:25:33.399Z,35.01
2022-09-30T15:28:00.801Z,35.12
2022-09-30T15:30:29.391Z,34.97
2022-09-30T15:33:05.130Z,35.76
2022-09-30T15:35:33.379Z,34.99
2022-09-30T15:38:25.501Z,35.45
2022-09-30T15:41:03.315Z,35.42
2022-09-30T15:43:41.992Z,35.55
2022-09-30T15:46:27.251Z,35.46
2022-09-30T15:49:05.497Z,35.54
2022-09-30T15:51:34.621Z,35.67
2022-09-30T15:54:32.069Z,35.38
2022-09-30T15:57:37.212Z,35.36
2022-09-30T16:00:08.261Z,35.10
2022-09-30T16:02:35.994Z,35.34
2022-09-30T16:05:05.419Z,35.48
2022-09-30T16:07:32.909Z,35.88
2022-09-30T16:10:00.187Z,35.76
2022-09-30T16:12:34.040Z,35.94
2022-09-30T16:15:14.469Z,36.59
2022-09-30T16:17:47.563Z,37.29
2022-09-30T16:20:14.726Z,37.43
2022-09-30T16:22:41.795Z,37.76
2022-09-30T16:25:33.618Z,38.11
2022-09-30T16:28:06.963Z,38.43
2022-09-30T16:30:34.087Z,38.43
2022-09-30T16:33:06.151Z,38.43
2022-09-30T16:35:33.603Z,40.65
2022-09-30T16:38:06.511Z,40.64
2022-09-30T16:40:39.165Z,41.62
2022-09-30T16:43:08.021Z,41.75
2022-09-30T16:45:35.640Z,41.62
2022-09-30T16:48:08.984Z,53.63
2022-09-30T16:50:41.796Z,0.00
2022-09-30T16:53:10.698Z,42.37
2022-09-30T16:55:38.159Z,43.52
2022-09-30T16:58:05.476Z,43.19
2022-09-30T17:00:33.545Z,43.63
2022-09-30T17:03:00.529Z,44.39
2022-09-30T17:05:28.032Z,44.53
2022-09-30T17:07:58.791Z,44.86
2022-09-30T17:10:33.330Z,45.94
2022-09-30T17:13:00.838Z,46.13
2022-09-30T17:15:33.424Z,47.04
2022-09-30T17:18:05.404Z,47.44
2022-09-30T17:20:32.440Z,47.57
2022-09-30T17:23:01.694Z,48.03
2022-09-30T17:25:32.219Z,48.51
2022-09-30T17:28:00.104Z,48.60
2022-09-30T17:30:27.194Z,48.73
2022-09-30T17:32:54.501Z,48.63
2022-09-30T17:35:22.595Z,48.98
2022-09-30T17:37:49.779Z,49.40
2022-09-30T17:40:35.765Z,49.38
2022-09-30T17:43:10.386Z,49.56
2022-09-30T17:45:43.982Z,49.64
2022-09-30T17:48:12.531Z,49.70
2022-09-30T17:50:45.452Z,49.76
2022-09-30T17:53:16.830Z,49.89
2022-09-30T17:55:47.232Z,49.84
2022-09-30T17:58:16.839Z,50.07
2022-09-30T18:00:44.600Z,50.09
2022-09-30T18:03:12.145Z,50.31
2022-09-30T18:05:39.198Z,50.16
2022-09-30T18:08:06.263Z,50.61
2022-09-30T18:10:37.152Z,50.48
2022-09-30T18:13:04.984Z,50.76
2022-09-30T18:15:32.590Z,50.69
2022-09-30T18:17:59.553Z,50.50
2022-09-30T18:20:26.703Z,50.18
2022-09-30T18:22:53.792Z,50.05
2022-09-30T18:25:21.353Z,50.23
2022-09-30T18:27:52.293Z,50.47
2022-09-30T18:30:21.185Z,50.37
2022-09-30T18:32:51.054Z,50.25
2022-09-30T18:35:21.106Z,50.41
2022-09-30T18:37:52.307Z,50.71
2022-09-30T18:40:24.269Z,50.84
2022-09-30T18:43:02.428Z,51.01
2022-09-30T18:45:35.753Z,51.78
2022-09-30T18:48:02.940Z,52.08
2022-09-30T18:50:31.380Z,53.10
2022-09-30T18:52:58.657Z,53.61
2022-09-30T18:55:26.148Z,53.94
2022-09-30T18:57:56.373Z,54.19
2022-09-30T19:00:23.827Z,54.86
2022-09-30T19:02:52.700Z,55.06
2022-09-30T19:05:21.010Z,55.36
2022-09-30T19:07:48.677Z,55.32
2022-09-30T19:10:16.196Z,55.60
2022-09-30T19:12:46.472Z,55.58
2022-09-30T19:15:18.305Z,55.45
2022-09-30T19:17:46.152Z,54.66
2022-09-30T19:20:15.405Z,55.13
2022-09-30T19:22:42.720Z,54.97
2022-09-30T19:25:11.872Z,55.27
2022-09-30T19:27:41.973Z,55.20
2022-09-30T19:30:12.767Z,55.33
2022-09-30T19:32:40.006Z,55.22
2022-09-30T19:35:14.819Z,55.80
2022-09-30T19:37:55.048Z,55.64
2022-09-30T19:40:27.403Z,56.11
2022-09-30T19:42:54.568Z,56.02
2022-09-30T19:45:25.870Z,56.25
2022-09-30T19:47:54.189Z,56.27
2022-09-30T19:50:21.579Z,56.21
2022-09-30T19:52:56.654Z,56.65
2022-09-30T19:55:26.542Z,57.57
2022-09-30T19:57:53.968Z,57.18
2022-09-30T20:00:21.328Z,57.20
2022-09-30T20:02:48.412Z,56.96
2022-09-30T20:05:15.563Z,56.90
2022-09-30T20:07:42.558Z,56.98
2022-09-30T20:10:09.892Z,57.00
2022-09-30T20:12:37.096Z,56.94
2022-09-30T20:15:23.135Z,56.55
2022-09-30T20:17:50.211Z,57.01
2022-09-30T20:20:35.161Z,56.78
2022-09-30T20:23:02.429Z,57.14
2022-09-30T20:25:30.611Z,56.56
2022-09-30T20:27:57.664Z,56.07
2022-09-30T20:30:25.183Z,55.96
2022-09-30T20:32:53.533Z,56.13
2022-09-30T20:35:23.714Z,56.13
2022-09-30T20:37:51.739Z,55.87
2022-09-30T20:40:18.768Z,55.78
2022-09-30T20:42:46.260Z,55.58
2022-09-30T20:45:14.116Z,55.58
2022-09-30T20:47:44.952Z,55.45
2022-09-30T20:50:34.528Z,55.36
2022-09-30T20:53:13.878Z,55.29
2022-09-30T20:55:43.624Z,55.29
2022-09-30T20:58:12.723Z,55.22
2022-09-30T21:00:41.910Z,55.29
2022-09-30T21:03:12.906Z,55.07
2022-09-30T21:05:40.542Z,54.77
2022-09-30T21:08:07.628Z,54.46
2022-09-30T21:10:37.185Z,54.50
2022-09-30T21:13:10.469Z,54.24
2022-09-30T21:15:39.546Z,54.31
2022-09-30T21:18:07.230Z,54.55
2022-09-30T21:20:35.103Z,54.46
2022-09-30T21:23:06.232Z,54.38
2022-09-30T21:25:34.023Z,54.49
2022-09-30T21:28:01.549Z,54.55
2022-09-30T21:30:28.987Z,54.24
2022-09-30T21:32:56.023Z,54.42
2022-09-30T21:35:23.152Z,54.36
2022-09-30T21:37:50.272Z,54.49
2022-09-30T21:40:17.696Z,54.56
2022-09-30T21:42:44.743Z,54.53
2022-09-30T21:45:12.340Z,54.82
2022-09-30T21:47:39.427Z,54.55
2022-09-30T21:50:07.847Z,54.97
2022-09-30T21:52:35.527Z,54.77
2022-09-30T21:55:03.083Z,55.13
2022-09-30T21:57:30.206Z,55.18
2022-09-30T21:59:57.592Z,54.80
2022-09-30T22:02:24.797Z,54.73
2022-09-30T22:04:51.857Z,54.62
2022-09-30T22:07:19.039Z,54.80
2022-09-30T22:09:46.067Z,54.69
2022-09-30T22:12:13.613Z,54.68
2022-09-30T22:14:40.654Z,54.73
2022-09-30T22:17:10.309Z,54.44
2022-09-30T22:19:38.193Z,54.36
2022-09-30T22:22:05.332Z,54.44
2022-09-30T22:24:32.797Z,54.33
2022-09-30T22:26:59.812Z,54.59
2022-09-30T22:29:27.091Z,54.63
2022-09-30T22:31:54.306Z,54.63
2022-09-30T22:34:39.828Z,54.88
2022-09-30T22:37:27.713Z,55.01
2022-09-30T22:39:58.677Z,54.94
2022-09-30T22:42:29.248Z,55.08
2022-09-30T22:44:56.362Z,54.93
2022-09-30T22:47:23.399Z,55.20
2022-09-30T22:49:50.421Z,55.17
2022-09-30T22:52:17.512Z,55.25
2022-09-30T22:54:44.607Z,55.33
2022-09-30T22:57:12.825Z,55.53
2022-09-30T22:59:41.755Z,55.33
2022-09-30T23:02:08.958Z,55.58
2022-09-30T23:04:36.281Z,55.58
2022-09-30T23:07:03.823Z,55.68
2022-09-30T23:09:31.248Z,55.67
2022-09-30T23:11:58.461Z,55.62
2022-09-30T23:14:25.606Z,55.96
2022-09-30T23:16:52.788Z,55.77
2022-09-30T23:19:20.180Z,55.87
2022-09-30T23:21:47.920Z,55.98
2022-09-30T23:24:15.121Z,56.31
2022-09-30T23:26:42.336Z,56.46
2022-09-30T23:29:13.345Z,56.60
2022-09-30T23:31:40.926Z,56.87
2022-09-30T23:34:08.558Z,56.98
2022-09-30T23:36:37.519Z,57.59
2022-09-30T23:39:15.480Z,57.39
2022-09-30T23:41:45.159Z,57.37
2022-09-30T23:44:14.727Z,57.65
2022-09-30T23:47:01.698Z,57.88
2022-09-30T23:49:29.377Z,57.79
2022-09-30T23:51:56.432Z,58.19
2022-09-30T23:54:23.577Z,58.46
2022-09-30T23:56:50.947Z,58.55
2022-09-30T23:59:19.328Z,58.77
